Latest Weather Observations for Cunderdin Airport

IDW60801

Issued at 5:23 pm WST Wednesday 29 June 2022 (issued every 10 minutes, with the page automatically refreshed every 10 minutes)

About weather observations | Map of weather stations | Latest weather observations for WA | Other Formats
Station Details ID: 010286 Name: CUNDERDIN AIRFIELD Lat: -31.62 Lon: 117.22 Height: 216.7 m
Data from the previous 72 hours. | See also: Recent months at Cunderdin Airport
Date/Time
WST
Temp
°C
App
Temp
°C
Dew
Point
°C
Rel
Hum
%
Delta-T
°C
Wind Press
QNH
hPa
Press
MSL
hPa
Rain since
9am
mm
Dir  Spd
km/h
Gust
km/h
Spd
kts
Gust
kts
29/05:00pm 12.5 7.8 6.1 65 3.0 ESE 20 30 11 16 1031.1 1031.2 0.0
29/04:30pm 12.7 7.9 5.8 63 3.3 ESE 20 32 11 17 1031.0 1031.1 0.0
29/04:00pm 13.3 8.1 5.7 60 3.6 ESE 22 30 12 16 1031.0 1031.1 0.0
29/03:30pm 13.6 8.4 5.3 57 3.9 SE 22 30 12 16 1030.9 1031.0 0.0
29/03:00pm 14.7 10.2 6.0 56 4.2 ESE 19 26 10 14 1030.8 1030.9 0.0
29/02:30pm 14.5 9.8 5.3 54 4.4 ESE 19 28 10 15 1030.8 1030.9 0.0
29/02:00pm 14.8 10.3 5.9 55 4.3 ESE 19 26 10 14 1030.8 1030.9 0.0
29/01:30pm 14.7 10.0 6.0 56 4.2 E 20 30 11 16 1031.0 1031.1 0.0
29/01:00pm 14.3 9.2 5.9 57 4.0 E 22 32 12 17 1031.2 1031.3 0.0
29/12:30pm 13.5 8.0 5.7 59 3.7 ENE 24 37 13 20 1031.7 1031.8 0.0
29/12:00pm 13.8 8.7 5.9 59 3.8 E 22 30 12 16 1032.1 1032.2 0.0
29/11:30am 13.3 8.2 5.9 61 3.5 E 22 32 12 17 1032.7 1032.8 0.0
29/11:00am 12.4 6.9 6.0 65 3.0 E 24 32 13 17 1033.0 1033.1 0.0
29/10:30am 11.9 7.2 6.0 67 2.8 E 20 28 11 15 1033.3 1033.4 0.0
29/10:00am 11.3 6.3 6.4 72 2.3 E 22 30 12 16 1033.6 1033.7 0.0
29/09:30am 10.0 6.9 7.3 83 1.3 E 13 20 7 11 1033.6 1033.7 0.0
29/09:00am 8.2 6.1 6.5 89 0.8 E 7 11 4 6 1033.5 1033.6 0.0
29/08:30am 6.8 4.6 6.1 95 0.3 E 7 11 4 6 1033.1 1033.2 0.0
29/08:00am 5.3 2.9 5.2 99 0.0 E 7 11 4 6 1032.9 1033.0 0.0
29/07:30am 2.2 -1.2 1.9 98 0.1 E 9 11 5 6 1032.6 1032.7 0.0
29/07:00am 2.3 -1.1 1.9 97 0.2 E 9 9 5 5 1032.2 1032.3 0.0
29/06:30am 3.0 -0.6 2.7 98 0.1 E 11 13 6 7 1032.2 1032.3 0.0
29/06:00am 2.8 -0.1 2.4 97 0.2 E 7 9 4 5 1032.1 1032.2 0.0
29/05:30am 2.9 0.1 2.2 95 0.3 E 6 7 3 4 1031.6 1031.7 0.0
29/05:00am 5.2 2.2 4.3 94 0.4 ESE 9 11 5 6 1031.4 1031.5 0.0
29/04:30am 5.3 2.4 4.4 94 0.4 ESE 9 11 5 6 1031.2 1031.3 0.0
29/04:00am 5.2 2.2 4.3 94 0.4 ESE 9 13 5 7 1031.3 1031.4 0.0
29/03:30am 5.1 2.2 4.5 96 0.3 E 9 11 5 6 1031.4 1031.5 0.0
29/03:00am 3.3 -0.7 2.7 96 0.2 ENE 13 15 7 8 1031.3 1031.4 0.0
29/02:30am 2.8 -0.6 1.9 94 0.4 ENE 9 11 5 6 1031.4 1031.5 0.0
29/02:00am 3.8 0.6 2.8 93 0.4 ENE 9 11 5 6 1031.4 1031.5 0.0
29/01:30am 4.8 2.1 3.5 91 0.5 E 7 9 4 5 1031.2 1031.3 0.0
29/01:00am 5.5 2.8 3.7 88 0.8 E 7 9 4 5 1031.1 1031.2 0.0
29/12:30am 6.5 3.8 3.7 82 1.2 ESE 7 11 4 6 1031.1 1031.2 0.0
29/12:00am 7.7 4.8 4.5 80 1.4 ESE 9 15 5 8 1031.2 1031.3 0.0
 
Date/Time
WST
Temp
°C
App
Temp
°C
Dew
Point
°C
Rel
Hum
%
Delta-T
°C
Wind Press
QNH
hPa
Press
MSL
hPa
Rain since
9am
mm
Dir  Spd
km/h
Gust
km/h
Spd
kts
Gust
kts
28/11:30pm 7.9 4.2 4.3 78 1.6 SE 13 17 7 9 1031.1 1031.2 0.0
28/11:00pm 8.4 4.7 4.4 76 1.8 SE 13 19 7 10 1031.1 1031.2 0.0
28/10:30pm 8.7 4.6 4.3 74 2.0 SE 15 20 8 11 1031.1 1031.2 0.0
28/10:00pm 9.2 4.8 4.6 73 2.0 SE 17 24 9 13 1031.1 1031.2 0.0
28/09:30pm 9.4 4.4 4.8 73 2.1 SE 20 26 11 14 1030.9 1031.0 0.0
28/09:00pm 8.8 4.9 5.4 79 1.5 SE 15 20 8 11 1030.9 1031.0 0.0
28/08:30pm 9.3 5.1 5.5 77 1.7 SE 17 22 9 12 1030.8 1030.9 0.0
28/08:00pm 9.1 5.6 5.3 77 1.7 SE 13 17 7 9 1030.8 1030.9 0.0
28/07:30pm 9.5 6.8 5.5 76 1.8 SE 9 13 5 7 1030.6 1030.7 0.0
28/07:00pm 9.4 6.7 5.6 77 1.7 SSE 9 13 5 7 1030.4 1030.5 0.0
28/06:30pm 10.3 7.3 6.1 75 2.0 SE 11 13 6 7 1030.1 1030.2 0.0
28/06:00pm 10.8 8.2 6.0 72 2.2 SE 9 13 5 7 1029.9 1029.9 0.0
28/05:30pm 11.7 8.6 5.6 66 2.9 SE 11 13 6 7 1029.6 1029.6 0.0
28/05:00pm 13.2 9.0 5.6 60 3.6 SE 17 22 9 12 1029.4 1029.4 0.0
28/04:30pm 14.1 9.9 5.7 57 4.0 SSE 17 24 9 13 1029.3 1029.3 0.0
28/04:00pm 14.2 9.4 4.8 53 4.4 SE 19 24 10 13 1029.2 1029.2 0.0
28/03:30pm 15.2 10.8 4.9 50 4.9 SE 17 24 9 13 1029.1 1029.1 0.0
28/03:00pm 15.3 11.3 5.0 50 4.9 SE 15 24 8 13 1029.2 1029.2 0.0
28/02:30pm 15.6 11.3 5.2 50 5.0 SE 17 24 9 13 1029.1 1029.1 0.0
28/02:00pm 15.4 11.1 5.3 51 4.8 SE 17 22 9 12 1029.2 1029.2 0.0
28/01:30pm 14.8 10.1 6.1 56 4.2 SSE 20 28 11 15 1029.6 1029.6 0.0
28/01:00pm 14.9 11.1 7.7 62 3.6 SE 17 26 9 14 1029.9 1029.9 0.0
28/12:30pm 14.2 10.0 7.3 63 3.4 SE 19 30 10 16 1030.4 1030.5 0.0
28/12:00pm 14.3 10.0 7.1 62 3.5 SE 19 26 10 14 1030.9 1031.0 0.0
28/11:30am 14.5 10.5 6.8 60 3.8 ESE 17 30 9 16 1031.2 1031.3 0.0
28/11:00am 14.0 10.4 8.2 68 2.9 SE 17 20 9 11 1031.6 1031.7 0.0
28/10:30am 13.3 10.0 8.0 70 2.7 ESE 15 20 8 11 1031.8 1031.9 0.0
28/10:00am 12.6 10.3 9.1 79 1.8 SE 11 17 6 9 1031.9 1032.0 0.0
28/09:30am 10.5 9.1 9.4 93 0.6 SE 7 13 4 7 1031.8 1031.9 0.0
28/09:00am 8.4 8.0 8.4 100 0.0 CALM 0 0 0 0 1031.7 1031.8 0.0
28/08:30am 6.4 5.6 6.4 100 0.0 CALM 0 0 0 0 1031.6 1031.7 0.0
28/08:00am 4.5 3.3 4.4 99 0.0 CALM 0 0 0 0 1031.3 1031.4 0.0
28/07:59am 4.4 3.1 4.3 99 0.0 CALM 0 0 0 0 1031.3 1031.4 0.0
28/07:42am 2.8 1.2 2.7 99 0.0 CALM 0 4 0 2 1031.2 1031.3 0.0
28/07:37am 2.3 0.3 2.2 99 0.0 NNE 2 6 1 3 1031.1 1031.2 0.0
28/07:34am 2.2 -0.2 2.1 99 0.0 NNE 4 6 2 3 1031.1 1031.2 0.0
28/07:30am 2.1 -0.7 2.0 99 0.0 NNE 6 7 3 4 1031.1 1031.2 0.0
28/07:28am 2.0 -0.8 1.9 99 0.0 NNE 6 7 3 4 1031.1 1031.2 0.0
28/07:25am 1.8 -1.3 1.5 98 0.1 NNE 7 7 4 4 1031.1 1031.2 0.0
28/07:20am 1.7 -1.4 1.4 98 0.1 NNE 7 7 4 4 1031.0 1031.1 0.0
28/07:10am 1.6 -0.9 1.3 98 0.1 NNE 4 7 2 4 1031.0 1031.1 0.0
28/07:00am 2.2 -0.6 1.9 98 0.1 NNE 6 7 3 4 1030.9 1031.0 0.0
28/06:57am 1.8 -1.1 1.5 98 0.1 NNE 6 7 3 4 1030.9 1031.0 0.0
28/06:55am 1.8 -0.7 1.5 98 0.1 NNE 4 7 2 4 1030.9 1031.0 0.0
28/06:33am 2.4 -0.4 2.1 98 0.1 N 6 7 3 4 1030.8 1030.9 0.0
28/06:30am 2.5 -0.3 2.2 98 0.1 N 6 7 3 4 1030.7 1030.8 0.0
28/06:08am 2.0 -0.9 1.6 97 0.2 NNE 6 7 3 4 1030.7 1030.8 0.0
28/06:04am 2.3 -0.5 1.9 97 0.2 NNE 6 7 3 4 1030.6 1030.7 0.0
28/06:00am 2.8 0.1 2.5 98 0.1 NNE 6 7 3 4 1030.6 1030.7 0.0
28/05:57am 3.0 0.3 2.7 98 0.1 NNE 6 7 3 4 1030.5 1030.6 0.0
28/05:48am 3.1 0.4 2.8 98 0.1 NNE 6 9 3 5 1030.5 1030.6 0.0
28/05:30am 3.4 0.6 3.0 97 0.2 ENE 7 7 4 4 1030.4 1030.5 0.0
28/05:25am 3.7 1.1 3.3 97 0.2 ENE 6 7 3 4 1030.4 1030.5 0.0
28/05:00am 4.5 1.9 4.1 97 0.2 ENE 7 9 4 5 1030.4 1030.5 0.0
28/04:30am 5.2 4.0 4.8 97 0.2 CALM 0 0 0 0 1030.2 1030.3 0.0
28/04:00am 5.9 3.7 5.3 96 0.3 SE 6 7 3 4 1030.2 1030.3 0.0
28/03:30am 6.4 5.4 5.7 95 0.3 CALM 0 0 0 0 1030.2 1030.3 0.0
28/03:00am 8.0 6.6 7.1 94 0.4 SSE 4 7 2 4 1030.2 1030.3 0.0
28/02:30am 8.3 6.5 7.2 93 0.5 SE 6 9 3 5 1030.0 1030.1 0.0
28/02:00am 9.0 7.3 7.6 91 0.7 SE 6 7 3 4 1029.7 1029.7 0.0
28/01:30am 10.1 8.5 8.2 88 0.9 ESE 6 9 3 5 1029.7 1029.7 0.0
28/01:00am 10.7 9.1 8.6 87 1.0 ESE 7 11 4 6 1029.7 1029.7 0.0
28/12:30am 10.4 8.8 7.8 84 1.3 E 6 7 3 4 1029.7 1029.7 0.0
28/12:00am 11.6 9.9 8.5 81 1.5 SE 7 11 4 6 1029.7 1029.7 0.0
 
Date/Time
WST
Temp
°C
App
Temp
°C
Dew
Point
°C
Rel
Hum
%
Delta-T
°C
Wind Press
QNH
hPa
Press
MSL
hPa
Rain since
9am
mm
Dir  Spd
km/h
Gust
km/h
Spd
kts
Gust
kts
27/11:30pm 12.4 10.9 9.1 80 1.7 SE 7 11 4 6 1029.8 1029.8 0.0
27/11:00pm 12.6 12.1 9.4 81 1.6 S 2 7 1 4 1029.6 1029.6 0.0
27/10:30pm 12.8 10.3 9.6 81 1.6 SSE 13 19 7 10 1029.4 1029.4 0.0
27/10:00pm 12.7 10.0 10.2 85 1.3 S 15 20 8 11 1029.5 1029.5 0.0
27/09:30pm 12.6 10.8 10.7 88 1.0 S 11 19 6 10 1029.2 1029.2 0.0
27/09:00pm 13.3 8.8 11.4 88 1.0 S 26 35 14 19 1029.1 1029.1 0.0
27/08:55pm 13.4 8.6 11.6 89 1.0 S 28 35 15 19 1029.0 1029.0 0.0
27/08:35pm 14.0 8.3 11.7 86 1.2 SSW 33 41 18 22 1028.7 1028.8 0.0
27/08:30pm 14.7 9.8 12.6 87 1.2 SSW 30 41 16 22 1028.5 1028.6 0.0
27/08:00pm 15.4 12.7 13.4 88 1.1 SW 20 33 11 18 1028.2 1028.3 0.0
27/07:30pm 14.3 11.8 12.2 87 1.1 SW 17 20 9 11 1027.8 1027.9 0.0
27/07:00pm 13.3 13.3 11.2 87 1.1 SW 2 7 1 4 1027.3 1027.4 0.0
27/06:30pm 14.1 12.8 11.4 84 1.5 W 9 11 5 6 1027.0 1027.1 0.0
27/06:00pm 15.5 14.4 11.9 79 2.0 W 9 11 5 6 1026.6 1026.7 0.0
27/05:30pm 17.8 16.5 12.5 71 3.0 W 11 13 6 7 1026.2 1026.3 0.0
27/05:00pm 18.7 16.5 12.2 66 3.6 WSW 15 20 8 11 1026.3 1026.4 0.0
27/04:30pm 19.0 16.9 12.3 65 3.8 WSW 15 19 8 10 1026.2 1026.3 0.0
27/04:00pm 19.2 16.8 12.7 66 3.7 W 17 20 9 11 1026.0 1026.0 0.0
27/03:30pm 19.6 17.0 11.9 61 4.3 W 17 22 9 12 1025.8 1025.8 0.0
27/03:00pm 20.2 17.1 12.2 60 4.5 W 20 28 11 15 1025.9 1025.9 0.0
27/02:30pm 22.0 17.5 11.4 51 6.0 WNW 26 32 14 17 1025.8 1025.8 0.0
27/02:00pm 21.5 17.4 11.5 53 5.6 W 24 30 13 16 1026.0 1026.0 0.0
27/01:30pm 21.6 18.4 11.9 54 5.5 WNW 20 30 11 16 1026.2 1026.3 0.0
27/01:00pm 20.9 17.7 11.8 56 5.1 WNW 20 28 11 15 1026.3 1026.4 0.0
27/12:30pm 20.9 17.4 10.1 50 5.9 NW 19 24 10 13 1026.7 1026.8 0.0
27/12:00pm 20.0 15.7 9.3 50 5.7 NW 22 26 12 14 1027.3 1027.4 0.0
27/11:30am 19.5 16.9 10.8 57 4.8 NW 15 20 8 11 1027.6 1027.7 0.0
27/11:00am 17.7 16.2 10.6 63 3.8 NW 9 13 5 7 1028.0 1028.1 0.0
27/10:30am 16.3 14.4 10.4 68 3.2 WNW 11 15 6 8 1028.5 1028.6 0.0
27/10:00am 15.4 13.0 10.2 71 2.7 WSW 13 17 7 9 1028.6 1028.7 0.0
27/09:30am 15.4 13.7 9.7 69 3.0 NW 9 17 5 9 1028.5 1028.6 0.0
27/09:00am 14.1 13.8 10.1 77 2.1 WNW 2 9 1 5 1028.4 1028.5 0.2
27/08:30am 11.4 9.7 9.7 89 0.9 N 9 15 5 8 1028.2 1028.3 0.2
27/08:00am 7.2 4.4 6.8 97 0.2 NE 11 13 6 7 1028.0 1028.1 0.2
27/07:30am 5.5 3.6 4.8 95 0.3 W 4 7 2 4 1028.0 1028.1 0.2
27/07:00am 5.8 3.3 4.9 94 0.4 W 7 9 4 5 1027.8 1027.9 0.2
27/06:30am 6.7 5.7 5.8 94 0.4 CALM 0 0 0 0 1027.4 1027.5 0.2
27/06:00am 7.0 4.0 5.8 92 0.5 SW 11 13 6 7 1027.1 1027.2 0.2
27/05:30am 8.6 7.9 7.1 90 0.7 CALM 0 0 0 0 1026.7 1026.8 0.2
27/05:00am 8.0 5.9 6.5 90 0.7 W 7 9 4 5 1026.6 1026.7 0.2
27/04:30am 8.9 7.0 6.7 86 1.0 SW 6 9 3 5 1026.4 1026.5 0.2
27/04:00am 9.7 7.8 7.6 87 1.0 SSE 7 13 4 7 1026.2 1026.3 0.2
27/03:30am 10.2 9.0 8.0 86 1.1 E 4 7 2 4 1026.0 1026.0 0.2
27/03:00am 9.2 8.2 7.3 88 0.9 SE 2 7 1 4 1026.2 1026.3 0.2
27/02:30am 8.0 6.2 7.2 95 0.4 SE 6 7 3 4 1026.2 1026.3 0.2
27/02:00am 8.8 7.0 8.0 95 0.4 NE 7 11 4 6 1026.3 1026.4 0.2
27/01:30am 7.5 6.0 6.9 96 0.3 E 4 7 2 4 1026.4 1026.5 0.2
27/01:00am 7.4 6.2 6.3 93 0.5 E 2 6 1 3 1026.5 1026.6 0.2
27/12:30am 8.7 7.1 7.9 95 0.4 ESE 6 7 3 4 1026.5 1026.6 0.2
27/12:00am 9.4 7.4 8.6 95 0.4 E 9 11 5 6 1026.5 1026.6 0.2
 
Date/Time
WST
Temp
°C
App
Temp
°C
Dew
Point
°C
Rel
Hum
%
Delta-T
°C
Wind Press
QNH
hPa
Press
MSL
hPa
Rain since
9am
mm
Dir  Spd
km/h
Gust
km/h
Spd
kts
Gust
kts
26/11:30pm 9.0 6.9 8.2 95 0.4 ESE 9 9 5 5 1026.5 1026.6 0.2
26/11:00pm 8.4 6.4 7.3 93 0.5 ESE 7 7 4 4 1026.5 1026.6 0.2
26/10:30pm 9.4 7.9 8.5 94 0.4 ESE 6 7 3 4 1026.6 1026.7 0.2
26/10:00pm 9.1 7.0 8.2 94 0.4 E 9 11 5 6 1026.5 1026.6 0.2
26/09:30pm 9.5 8.0 8.3 92 0.6 E 6 7 3 4 1026.6 1026.7 0.2
26/09:00pm 9.7 7.7 8.5 92 0.6 ENE 9 11 5 6 1026.6 1026.7 0.2
26/08:30pm 10.0 8.0 8.6 91 0.7 ENE 9 9 5 5 1026.5 1026.6 0.2
26/08:00pm 10.6 8.4 9.2 91 0.7 ENE 11 13 6 7 1026.5 1026.6 0.2
26/07:30pm 10.4 8.9 9.3 93 0.6 NE 7 9 4 5 1026.6 1026.7 0.2
26/07:00pm 9.7 8.0 8.3 91 0.7 NE 7 9 4 5 1026.5 1026.6 0.2
26/06:30pm 10.9 9.3 8.8 87 1.1 NNE 7 9 4 5 1026.3 1026.4 0.2
26/06:00pm 12.3 10.9 9.7 84 1.3 NNE 7 9 4 5 1026.0 1026.0 0.2
26/05:30pm 14.0 12.8 10.4 79 1.9 NNE 7 9 4 5 1025.7 1025.7 0.2

Other formats

Comma delimited format used in spreadsheet applications
http://www.bom.gov.au/fwo/IDW60801/IDW60801.95625.axf

JavaScript Object Notation format (JSON) in row-major order
http://www.bom.gov.au/fwo/IDW60801/IDW60801.95625.json

Data quality

Most of these data are generated automatically and are frequently updated. Quality checks on data are not normally performed. It is possible for incorrect values to appear. Refer to information at About Latest Weather Observations and please check the disclaimer before using these data.